Barnesville, Minnesota
Current Conditions -  °F | °C
As of 3:34 AM on Friday 24 Oct 2014 (Local Time) from KJKJ Reporting Station
Clear Clear  
Wind Chill: 41°   Ceiling: Unl
Heat Index: 46°   Visibility: 10mi
Dew Point: 45°   Wind: 12mph
Humidity: 93%   Direction: 160°SSE
Pressure: 29.82"   Gusts: NA
Location:  46.65°N, 96.42°W
Report Text: KJKJ 240834Z AUTO 16010KT 10SM CLR 08/07 A2982 RMK AO2
Loading
Personal Weather Stations






























Interactive Weather Map
Tropical Storm Tracking
New forecast layout! Learn more

10-Day Weather Forecast

Advertisements
Track Severe Weather on mobile